BGW weather

Baghdad International Airport
Baghdad, Baghdad Governorate, Iraq

Public forecast

Using degrees Celsius for public forecast. Weather courtesy of forecast.io.

Current aviation weather report (METAR) for Baghdad International Airport

Retrieved 2019/11/22 07:00 UTC (8 minutes ago):

ORBI 220700Z 24003KT 190V280 CAVOK 17/M02 Q1022 NOSIG

Aviation forecast (TAF) for Baghdad International Airport

Forecast is more than 6 hours old.

Retrieved 2019-11-22 00:00 UTC (7 hours ago):

TAF TAF ORBI 212200Z 2200/2224 12006KT 8000 NSC